sensor_id;sensor_type;location;lat;lon;timestamp;P1;durP1;ratioP1;P2;durP2;ratioP2
1078;SDS011;528;47.872;11.478;2022-08-06T08:46:57;8.40;;;7.70;;
1078;SDS011;528;47.872;11.478;2022-08-06T08:49:28;7.27;;;6.73;;
1078;SDS011;528;47.872;11.478;2022-08-06T08:52:39;9.43;;;8.60;;
1078;SDS011;528;47.872;11.478;2022-08-06T08:58:24;7.10;;;6.50;;
1078;SDS011;528;47.872;11.478;2022-08-06T09:05:12;5.00;;;4.70;;
1078;SDS011;528;47.872;11.478;2022-08-06T09:13:25;5.17;;;4.87;;
1078;SDS011;528;47.872;11.478;2022-08-06T09:29:10;5.70;;;5.30;;
1078;SDS011;528;47.872;11.478;2022-08-06T09:31:45;5.17;;;4.87;;
1078;SDS011;528;47.872;11.478;2022-08-06T09:34:14;5.30;;;4.90;;
1078;SDS011;528;47.872;11.478;2022-08-06T09:36:42;5.20;;;4.80;;
1078;SDS011;528;47.872;11.478;2022-08-06T09:39:10;4.90;;;4.60;;
1078;SDS011;528;47.872;11.478;2022-08-06T09:41:44;5.17;;;4.87;;
1078;SDS011;528;47.872;11.478;2022-08-06T09:44:15;4.60;;;4.30;;
1078;SDS011;528;47.872;11.478;2022-08-06T09:46:43;4.90;;;4.60;;
1078;SDS011;528;47.872;11.478;2022-08-06T09:49:12;5.60;;;5.20;;
1078;SDS011;528;47.872;11.478;2022-08-06T09:51:42;6.30;;;5.90;;
1078;SDS011;528;47.872;11.478;2022-08-06T09:54:09;7.23;;;6.63;;
1078;SDS011;528;47.872;11.478;2022-08-06T09:56:41;7.87;;;7.17;;
1078;SDS011;528;47.872;11.478;2022-08-06T09:59:09;7.57;;;6.97;;
1078;SDS011;528;47.872;11.478;2022-08-06T10:01:43;6.50;;;6.10;;
1078;SDS011;528;47.872;11.478;2022-08-06T10:04:23;6.83;;;6.33;;
1078;SDS011;528;47.872;11.478;2022-08-06T10:06:52;7.80;;;7.10;;
1078;SDS011;528;47.872;11.478;2022-08-06T10:09:21;8.37;;;7.77;;
1078;SDS011;528;47.872;11.478;2022-08-06T10:11:49;9.47;;;8.77;;
1078;SDS011;528;47.872;11.478;2022-08-06T10:14:22;9.30;;;8.60;;
1078;SDS011;528;47.872;11.478;2022-08-06T10:17:04;10.90;;;10.00;;
1078;SDS011;528;47.872;11.478;2022-08-06T10:19:32;13.27;;;12.07;;
1078;SDS011;528;47.872;11.478;2022-08-06T10:22:04;14.20;;;13.00;;
1078;SDS011;528;47.872;11.478;2022-08-06T10:24:32;14.93;;;13.63;;
1078;SDS011;528;47.872;11.478;2022-08-06T10:27:05;13.50;;;12.30;;
1078;SDS011;528;47.872;11.478;2022-08-06T10:29:40;12.87;;;11.77;;
1078;SDS011;528;47.872;11.478;2022-08-06T10:32:13;12.80;;;11.80;;
1078;SDS011;528;47.872;11.478;2022-08-06T10:34:42;14.07;;;12.87;;
1078;SDS011;528;47.872;11.478;2022-08-06T10:37:11;14.80;;;13.60;;
1078;SDS011;528;47.872;11.478;2022-08-06T10:39:40;14.87;;;13.67;;
1078;SDS011;528;47.872;11.478;2022-08-06T10:42:14;14.80;;;13.50;;
1078;SDS011;528;47.872;11.478;2022-08-06T10:44:43;16.57;;;15.10;;
1078;SDS011;528;47.872;11.478;2022-08-06T10:47:14;18.43;;;16.83;;
1078;SDS011;528;47.872;11.478;2022-08-06T10:49:42;17.60;;;16.00;;
1078;SDS011;528;47.872;11.478;2022-08-06T10:52:10;17.63;;;16.10;;
1078;SDS011;528;47.872;11.478;2022-08-06T10:54:37;18.50;;;16.90;;
1078;SDS011;528;47.872;11.478;2022-08-06T10:57:06;18.83;;;17.23;;
1078;SDS011;528;47.872;11.478;2022-08-06T10:59:37;27.27;;;23.50;;
1078;SDS011;528;47.872;11.478;2022-08-06T11:02:08;23.33;;;21.03;;
1078;SDS011;528;47.872;11.478;2022-08-06T11:04:45;23.33;;;21.03;;
1078;SDS011;528;47.872;11.478;2022-08-06T11:07:24;24.00;;;21.80;;
1078;SDS011;528;47.872;11.478;2022-08-06T11:10:18;24.03;;;21.50;;
1078;SDS011;528;47.872;11.478;2022-08-06T11:13:08;23.10;;;20.80;;
1078;SDS011;528;47.872;11.478;2022-08-06T11:15:43;22.70;;;20.60;;
1078;SDS011;528;47.872;11.478;2022-08-06T11:18:11;31.40;;;27.97;;
1078;SDS011;528;47.872;11.478;2022-08-06T11:20:41;41.60;;;33.10;;
1078;SDS011;528;47.872;11.478;2022-08-06T11:23:29;47.13;;;36.60;;
1078;SDS011;528;47.872;11.478;2022-08-06T11:25:58;46.60;;;36.17;;
1078;SDS011;528;47.872;11.478;2022-08-06T11:31:30;25.70;;;23.30;;
1078;SDS011;528;47.872;11.478;2022-08-06T11:34:11;26.10;;;23.70;;
1078;SDS011;528;47.872;11.478;2022-08-06T11:36:49;25.90;;;23.47;;
1078;SDS011;528;47.872;11.478;2022-08-06T11:39:25;25.00;;;22.60;;
1078;SDS011;528;47.872;11.478;2022-08-06T11:41:57;25.73;;;23.20;;
1078;SDS011;528;47.872;11.478;2022-08-06T11:44:27;25.10;;;22.57;;
1078;SDS011;528;47.872;11.478;2022-08-06T11:47:08;24.33;;;22.07;;
1078;SDS011;528;47.872;11.478;2022-08-06T11:49:38;25.00;;;22.63;;
1078;SDS011;528;47.872;11.478;2022-08-06T11:52:09;25.67;;;23.13;;
1078;SDS011;528;47.872;11.478;2022-08-06T11:55:05;24.97;;;22.50;;
1078;SDS011;528;47.872;11.478;2022-08-06T11:57:34;23.83;;;21.57;;
1078;SDS011;528;47.872;11.478;2022-08-06T12:00:12;21.97;;;19.97;;
1078;SDS011;528;47.872;11.478;2022-08-06T12:02:51;24.43;;;22.03;;
1078;SDS011;528;47.872;11.478;2022-08-06T12:05:35;24.77;;;22.47;;
1078;SDS011;528;47.872;11.478;2022-08-06T12:08:19;24.60;;;22.30;;
1078;SDS011;528;47.872;11.478;2022-08-06T12:13:55;23.97;;;21.77;;
1078;SDS011;528;47.872;11.478;2022-08-06T12:16:30;23.90;;;21.60;;
1078;SDS011;528;47.872;11.478;2022-08-06T12:18:59;25.20;;;22.80;;
1078;SDS011;528;47.872;11.478;2022-08-06T12:21:28;24.87;;;22.37;;
1078;SDS011;528;47.872;11.478;2022-08-06T12:23:58;25.40;;;22.97;;
1078;SDS011;528;47.872;11.478;2022-08-06T12:26:29;22.77;;;20.57;;
1078;SDS011;528;47.872;11.478;2022-08-06T12:29:00;23.17;;;20.97;;
1078;SDS011;528;47.872;11.478;2022-08-06T12:31:33;22.80;;;20.60;;
1078;SDS011;528;47.872;11.478;2022-08-06T12:34:01;21.50;;;19.50;;
1078;SDS011;528;47.872;11.478;2022-08-06T12:36:30;23.37;;;21.17;;
1078;SDS011;528;47.872;11.478;2022-08-06T12:39:01;21.00;;;19.10;;
1078;SDS011;528;47.872;11.478;2022-08-06T12:41:34;23.23;;;21.00;;
1078;SDS011;528;47.872;11.478;2022-08-06T12:44:03;24.47;;;22.30;;
1078;SDS011;528;47.872;11.478;2022-08-06T12:49:07;21.67;;;19.67;;
1078;SDS011;528;47.872;11.478;2022-08-06T12:51:34;22.50;;;20.30;;
1078;SDS011;528;47.872;11.478;2022-08-06T12:54:04;22.23;;;20.07;;
1078;SDS011;528;47.872;11.478;2022-08-06T12:56:34;22.27;;;20.23;;
1078;SDS011;528;47.872;11.478;2022-08-06T12:59:05;22.37;;;20.37;;
1078;SDS011;528;47.872;11.478;2022-08-06T13:01:35;20.93;;;18.93;;
1078;SDS011;528;47.872;11.478;2022-08-06T13:04:04;21.23;;;19.23;;
1078;SDS011;528;47.872;11.478;2022-08-06T13:06:35;21.10;;;19.17;;
1078;SDS011;528;47.872;11.478;2022-08-06T13:09:05;19.43;;;17.70;;
1078;SDS011;528;47.872;11.478;2022-08-06T13:11:33;19.53;;;17.63;;
1078;SDS011;528;47.872;11.478;2022-08-06T13:14:07;19.27;;;17.47;;
1078;SDS011;528;47.872;11.478;2022-08-06T13:16:41;18.30;;;16.67;;
1078;SDS011;528;47.872;11.478;2022-08-06T13:19:10;17.80;;;16.20;;
1078;SDS011;528;47.872;11.478;2022-08-06T13:21:39;15.30;;;13.90;;
1078;SDS011;528;47.872;11.478;2022-08-06T13:24:09;18.23;;;16.63;;
1078;SDS011;528;47.872;11.478;2022-08-06T13:26:47;16.43;;;14.93;;
1078;SDS011;528;47.872;11.478;2022-08-06T13:29:17;18.00;;;16.40;;
1078;SDS011;528;47.872;11.478;2022-08-06T13:31:56;16.60;;;15.20;;
1078;SDS011;528;47.872;11.478;2022-08-06T13:34:25;17.57;;;16.07;;
1078;SDS011;528;47.872;11.478;2022-08-06T13:36:53;18.90;;;17.20;;
1078;SDS011;528;47.872;11.478;2022-08-06T13:39:25;19.17;;;17.50;;
1078;SDS011;528;47.872;11.478;2022-08-06T13:42:05;18.50;;;16.80;;
1078;SDS011;528;47.872;11.478;2022-08-06T13:44:37;19.57;;;17.83;;
1078;SDS011;528;47.872;11.478;2022-08-06T13:47:05;18.87;;;17.10;;
1078;SDS011;528;47.872;11.478;2022-08-06T13:49:33;15.97;;;14.60;;
1078;SDS011;528;47.872;11.478;2022-08-06T13:52:01;17.20;;;15.70;;
1078;SDS011;528;47.872;11.478;2022-08-06T13:54:30;17.30;;;15.80;;
1078;SDS011;528;47.872;11.478;2022-08-06T13:56:57;15.03;;;13.73;;
1078;SDS011;528;47.872;11.478;2022-08-06T13:59:25;16.83;;;15.43;;
1078;SDS011;528;47.872;11.478;2022-08-06T14:01:53;17.17;;;15.57;;
1078;SDS011;528;47.872;11.478;2022-08-06T14:04:24;17.80;;;16.30;;
1078;SDS011;528;47.872;11.478;2022-08-06T14:06:53;16.63;;;15.23;;
1078;SDS011;528;47.872;11.478;2022-08-06T14:09:23;16.40;;;15.00;;
1078;SDS011;528;47.872;11.478;2022-08-06T14:11:52;16.27;;;14.87;;
1078;SDS011;528;47.872;11.478;2022-08-06T14:14:22;15.47;;;14.07;;
1078;SDS011;528;47.872;11.478;2022-08-06T14:16:51;18.20;;;16.70;;
1078;SDS011;528;47.872;11.478;2022-08-06T14:19:19;15.93;;;14.53;;
1078;SDS011;528;47.872;11.478;2022-08-06T14:21:46;16.90;;;15.40;;
1078;SDS011;528;47.872;11.478;2022-08-06T14:24:14;19.50;;;17.80;;
1078;SDS011;528;47.872;11.478;2022-08-06T14:26:41;15.00;;;13.70;;
1078;SDS011;528;47.872;11.478;2022-08-06T14:29:10;13.80;;;12.60;;
1078;SDS011;528;47.872;11.478;2022-08-06T14:31:37;14.60;;;13.40;;
1078;SDS011;528;47.872;11.478;2022-08-06T14:34:04;14.23;;;13.03;;
1078;SDS011;528;47.872;11.478;2022-08-06T14:36:32;16.33;;;14.87;;
1078;SDS011;528;47.872;11.478;2022-08-06T14:38:59;15.33;;;14.00;;
1078;SDS011;528;47.872;11.478;2022-08-06T14:41:27;16.00;;;14.63;;
1078;SDS011;528;47.872;11.478;2022-08-06T14:44:13;17.03;;;15.33;;
1078;SDS011;528;47.872;11.478;2022-08-06T14:49:29;20.60;;;18.43;;
1078;SDS011;528;47.872;11.478;2022-08-06T14:51:56;26.83;;;22.77;;
1078;SDS011;528;47.872;11.478;2022-08-06T14:54:24;18.13;;;16.53;;
1078;SDS011;528;47.872;11.478;2022-08-06T14:56:51;17.27;;;15.83;;
1078;SDS011;528;47.872;11.478;2022-08-06T14:59:20;16.63;;;15.13;;
1078;SDS011;528;47.872;11.478;2022-08-06T15:01:50;17.33;;;15.73;;
1078;SDS011;528;47.872;11.478;2022-08-06T15:04:17;17.13;;;15.57;;
1078;SDS011;528;47.872;11.478;2022-08-06T15:06:45;16.40;;;15.00;;
1078;SDS011;528;47.872;11.478;2022-08-06T15:09:12;16.50;;;15.00;;
1078;SDS011;528;47.872;11.478;2022-08-06T15:11:39;17.03;;;15.53;;
1078;SDS011;528;47.872;11.478;2022-08-06T15:14:07;16.80;;;15.33;;
1078;SDS011;528;47.872;11.478;2022-08-06T15:16:35;17.60;;;15.93;;
1078;SDS011;528;47.872;11.478;2022-08-06T15:19:03;17.50;;;15.90;;
1078;SDS011;528;47.872;11.478;2022-08-06T15:21:30;18.10;;;16.50;;
1078;SDS011;528;47.872;11.478;2022-08-06T15:23:57;17.90;;;16.30;;
1078;SDS011;528;47.872;11.478;2022-08-06T15:26:25;15.97;;;14.57;;
1078;SDS011;528;47.872;11.478;2022-08-06T15:28:53;16.77;;;15.27;;
1078;SDS011;528;47.872;11.478;2022-08-06T15:31:20;17.73;;;16.23;;
1078;SDS011;528;47.872;11.478;2022-08-06T15:33:50;17.07;;;15.43;;
1078;SDS011;528;47.872;11.478;2022-08-06T15:36:18;17.73;;;16.13;;
1078;SDS011;528;47.872;11.478;2022-08-06T15:38:45;17.43;;;15.90;;
1078;SDS011;528;47.872;11.478;2022-08-06T15:41:14;17.33;;;15.83;;
1078;SDS011;528;47.872;11.478;2022-08-06T15:43:41;15.80;;;14.40;;
1078;SDS011;528;47.872;11.478;2022-08-06T15:46:08;16.33;;;14.93;;
1078;SDS011;528;47.872;11.478;2022-08-06T15:48:35;17.27;;;15.77;;
1078;SDS011;528;47.872;11.478;2022-08-06T15:51:04;17.97;;;16.47;;
1078;SDS011;528;47.872;11.478;2022-08-06T15:53:31;16.10;;;14.70;;
1078;SDS011;528;47.872;11.478;2022-08-06T15:55:58;17.77;;;16.27;;
1078;SDS011;528;47.872;11.478;2022-08-06T15:58:25;14.47;;;13.13;;
1078;SDS011;528;47.872;11.478;2022-08-06T16:00:52;16.20;;;14.53;;
1078;SDS011;528;47.872;11.478;2022-08-06T16:03:19;14.57;;;13.23;;
1078;SDS011;528;47.872;11.478;2022-08-06T16:05:46;14.70;;;13.40;;
1078;SDS011;528;47.872;11.478;2022-08-06T16:08:15;13.90;;;12.70;;
1078;SDS011;528;47.872;11.478;2022-08-06T16:10:43;15.20;;;13.90;;
1078;SDS011;528;47.872;11.478;2022-08-06T16:13:11;14.60;;;13.40;;
1078;SDS011;528;47.872;11.478;2022-08-06T16:15:43;14.57;;;13.37;;
1078;SDS011;528;47.872;11.478;2022-08-06T16:18:12;15.33;;;14.03;;
1078;SDS011;528;47.872;11.478;2022-08-06T16:20:40;14.07;;;12.87;;
1078;SDS011;528;47.872;11.478;2022-08-06T16:23:08;15.83;;;14.43;;
1078;SDS011;528;47.872;11.478;2022-08-06T16:25:38;15.07;;;13.57;;
1078;SDS011;528;47.872;11.478;2022-08-06T16:28:05;14.10;;;12.90;;
1078;SDS011;528;47.872;11.478;2022-08-06T16:30:34;13.83;;;12.67;;
1078;SDS011;528;47.872;11.478;2022-08-06T16:33:01;15.43;;;14.00;;
1078;SDS011;528;47.872;11.478;2022-08-06T16:35:29;13.90;;;12.70;;
1078;SDS011;528;47.872;11.478;2022-08-06T16:37:58;15.30;;;13.80;;
1078;SDS011;528;47.872;11.478;2022-08-06T16:40:26;12.77;;;11.73;;
1078;SDS011;528;47.872;11.478;2022-08-06T16:42:55;14.60;;;13.40;;
1078;SDS011;528;47.872;11.478;2022-08-06T16:45:23;14.60;;;13.40;;
1078;SDS011;528;47.872;11.478;2022-08-06T16:47:51;14.17;;;12.97;;
1078;SDS011;528;47.872;11.478;2022-08-06T16:50:20;14.53;;;13.33;;
1078;SDS011;528;47.872;11.478;2022-08-06T16:52:48;14.50;;;13.10;;
1078;SDS011;528;47.872;11.478;2022-08-06T16:55:15;13.90;;;12.73;;
1078;SDS011;528;47.872;11.478;2022-08-06T16:57:42;14.50;;;13.20;;
1078;SDS011;528;47.872;11.478;2022-08-06T17:00:12;16.73;;;15.17;;
1078;SDS011;528;47.872;11.478;2022-08-06T17:02:40;14.50;;;13.20;;
1078;SDS011;528;47.872;11.478;2022-08-06T17:05:08;15.07;;;13.60;;
1078;SDS011;528;47.872;11.478;2022-08-06T17:07:37;16.63;;;15.13;;
1078;SDS011;528;47.872;11.478;2022-08-06T17:10:06;15.37;;;13.90;;
1078;SDS011;528;47.872;11.478;2022-08-06T17:12:33;16.33;;;14.93;;
1078;SDS011;528;47.872;11.478;2022-08-06T17:15:02;16.03;;;14.73;;
1078;SDS011;528;47.872;11.478;2022-08-06T17:17:31;14.70;;;13.40;;
1078;SDS011;528;47.872;11.478;2022-08-06T17:19:59;15.53;;;14.30;;
1078;SDS011;528;47.872;11.478;2022-08-06T17:22:26;15.40;;;14.03;;
1078;SDS011;528;47.872;11.478;2022-08-06T17:24:53;13.30;;;12.20;;
1078;SDS011;528;47.872;11.478;2022-08-06T17:27:20;15.53;;;14.23;;
1078;SDS011;528;47.872;11.478;2022-08-06T17:29:48;14.20;;;13.00;;
1078;SDS011;528;47.872;11.478;2022-08-06T17:32:16;14.53;;;13.27;;
1078;SDS011;528;47.872;11.478;2022-08-06T17:34:46;14.77;;;13.47;;
1078;SDS011;528;47.872;11.478;2022-08-06T17:37:13;14.03;;;12.90;;
1078;SDS011;528;47.872;11.478;2022-08-06T17:39:40;14.77;;;13.47;;
1078;SDS011;528;47.872;11.478;2022-08-06T17:42:07;14.80;;;13.50;;
1078;SDS011;528;47.872;11.478;2022-08-06T17:44:34;13.83;;;12.73;;
1078;SDS011;528;47.872;11.478;2022-08-06T17:47:02;14.00;;;12.90;;
1078;SDS011;528;47.872;11.478;2022-08-06T17:49:29;16.50;;;15.00;;
1078;SDS011;528;47.872;11.478;2022-08-06T17:51:59;15.27;;;14.00;;
1078;SDS011;528;47.872;11.478;2022-08-06T17:54:26;15.47;;;14.13;;
1078;SDS011;528;47.872;11.478;2022-08-06T17:56:55;15.10;;;13.80;;
1078;SDS011;528;47.872;11.478;2022-08-06T17:59:25;15.80;;;14.43;;
1078;SDS011;528;47.872;11.478;2022-08-06T18:01:53;15.43;;;14.13;;
1078;SDS011;528;47.872;11.478;2022-08-06T18:04:21;15.73;;;14.43;;
1078;SDS011;528;47.872;11.478;2022-08-06T18:06:49;14.33;;;13.13;;
1078;SDS011;528;47.872;11.478;2022-08-06T18:09:18;14.40;;;13.13;;
1078;SDS011;528;47.872;11.478;2022-08-06T18:11:46;14.37;;;13.17;;
1078;SDS011;528;47.872;11.478;2022-08-06T18:14:13;18.00;;;16.30;;
1078;SDS011;528;47.872;11.478;2022-08-06T18:16:40;15.70;;;14.40;;
1078;SDS011;528;47.872;11.478;2022-08-06T18:19:07;15.77;;;14.40;;
1078;SDS011;528;47.872;11.478;2022-08-06T18:21:34;14.63;;;13.40;;
1078;SDS011;528;47.872;11.478;2022-08-06T18:24:01;15.53;;;14.33;;
1078;SDS011;528;47.872;11.478;2022-08-06T18:26:30;15.67;;;14.37;;
1078;SDS011;528;47.872;11.478;2022-08-06T18:28:57;15.60;;;14.20;;
1078;SDS011;528;47.872;11.478;2022-08-06T18:31:24;16.40;;;14.80;;
1078;SDS011;528;47.872;11.478;2022-08-06T18:33:53;15.20;;;14.00;;
1078;SDS011;528;47.872;11.478;2022-08-06T18:36:20;15.53;;;14.13;;
1078;SDS011;528;47.872;11.478;2022-08-06T18:38:47;15.47;;;14.20;;
1078;SDS011;528;47.872;11.478;2022-08-06T18:41:15;15.60;;;14.10;;
1078;SDS011;528;47.872;11.478;2022-08-06T18:43:44;14.63;;;13.37;;
1078;SDS011;528;47.872;11.478;2022-08-06T18:46:16;15.10;;;13.70;;
1078;SDS011;528;47.872;11.478;2022-08-06T18:48:44;16.20;;;14.73;;
1078;SDS011;528;47.872;11.478;2022-08-06T18:51:12;15.27;;;14.07;;
1078;SDS011;528;47.872;11.478;2022-08-06T18:53:40;14.80;;;13.53;;
1078;SDS011;528;47.872;11.478;2022-08-06T18:56:08;14.57;;;13.37;;
1078;SDS011;528;47.872;11.478;2022-08-06T18:58:35;14.40;;;13.20;;
1078;SDS011;528;47.872;11.478;2022-08-06T19:01:05;15.10;;;13.83;;
1078;SDS011;528;47.872;11.478;2022-08-06T19:03:32;15.07;;;13.83;;
1078;SDS011;528;47.872;11.478;2022-08-06T19:05:59;15.40;;;14.10;;
1078;SDS011;528;47.872;11.478;2022-08-06T19:08:27;13.53;;;12.33;;
1078;SDS011;528;47.872;11.478;2022-08-06T19:10:54;14.23;;;13.07;;
1078;SDS011;528;47.872;11.478;2022-08-06T19:13:23;14.27;;;13.17;;
1078;SDS011;528;47.872;11.478;2022-08-06T19:15:50;13.93;;;12.83;;
1078;SDS011;528;47.872;11.478;2022-08-06T19:18:18;13.40;;;12.30;;
1078;SDS011;528;47.872;11.478;2022-08-06T19:20:46;12.37;;;11.47;;
1078;SDS011;528;47.872;11.478;2022-08-06T19:23:13;12.50;;;11.43;;
1078;SDS011;528;47.872;11.478;2022-08-06T19:25:40;13.07;;;12.07;;
1078;SDS011;528;47.872;11.478;2022-08-06T19:28:08;12.87;;;11.70;;
1078;SDS011;528;47.872;11.478;2022-08-06T19:30:35;13.47;;;12.37;;
1078;SDS011;528;47.872;11.478;2022-08-06T19:33:02;12.83;;;11.80;;
1078;SDS011;528;47.872;11.478;2022-08-06T19:35:33;13.60;;;12.33;;
1078;SDS011;528;47.872;11.478;2022-08-06T19:38:01;14.53;;;13.23;;
1078;SDS011;528;47.872;11.478;2022-08-06T19:40:28;14.27;;;12.87;;
1078;SDS011;528;47.872;11.478;2022-08-06T19:43:14;14.83;;;13.43;;
1078;SDS011;528;47.872;11.478;2022-08-06T19:45:43;14.90;;;13.50;;
1078;SDS011;528;47.872;11.478;2022-08-06T19:48:12;14.70;;;13.50;;
1078;SDS011;528;47.872;11.478;2022-08-06T19:50:41;14.33;;;12.97;;
1078;SDS011;528;47.872;11.478;2022-08-06T19:53:08;13.27;;;11.87;;
1078;SDS011;528;47.872;11.478;2022-08-06T19:55:35;14.07;;;12.90;;
1078;SDS011;528;47.872;11.478;2022-08-06T19:58:04;14.87;;;13.63;;
1078;SDS011;528;47.872;11.478;2022-08-06T20:00:32;13.73;;;12.63;;
1078;SDS011;528;47.872;11.478;2022-08-06T20:03:00;14.00;;;12.90;;
1078;SDS011;528;47.872;11.478;2022-08-06T20:05:27;13.50;;;12.40;;
1078;SDS011;528;47.872;11.478;2022-08-06T20:07:56;14.10;;;12.90;;
1078;SDS011;528;47.872;11.478;2022-08-06T20:10:23;16.03;;;14.60;;
1078;SDS011;528;47.872;11.478;2022-08-06T20:12:51;15.87;;;14.47;;
1078;SDS011;528;47.872;11.478;2022-08-06T20:15:18;17.13;;;15.50;;
1078;SDS011;528;47.872;11.478;2022-08-06T20:17:46;18.23;;;16.37;;
1078;SDS011;528;47.872;11.478;2022-08-06T20:20:15;17.17;;;15.57;;
1078;SDS011;528;47.872;11.478;2022-08-06T20:22:43;17.63;;;16.13;;
1078;SDS011;528;47.872;11.478;2022-08-06T20:25:12;17.93;;;16.33;;
1078;SDS011;528;47.872;11.478;2022-08-06T20:27:43;17.47;;;15.97;;
1078;SDS011;528;47.872;11.478;2022-08-06T20:30:11;16.40;;;15.10;;
1078;SDS011;528;47.872;11.478;2022-08-06T20:32:39;16.80;;;15.30;;
1078;SDS011;528;47.872;11.478;2022-08-06T20:35:06;16.53;;;15.13;;
1078;SDS011;528;47.872;11.478;2022-08-06T20:37:34;16.13;;;14.80;;
1078;SDS011;528;47.872;11.478;2022-08-06T20:40:03;16.13;;;14.80;;
1078;SDS011;528;47.872;11.478;2022-08-06T20:42:32;17.37;;;15.97;;
1078;SDS011;528;47.872;11.478;2022-08-06T20:44:59;16.63;;;15.23;;
1078;SDS011;528;47.872;11.478;2022-08-06T20:47:26;17.00;;;15.50;;
1078;SDS011;528;47.872;11.478;2022-08-06T20:49:54;16.97;;;15.57;;
1078;SDS011;528;47.872;11.478;2022-08-06T20:52:21;16.63;;;15.20;;
1078;SDS011;528;47.872;11.478;2022-08-06T20:54:49;17.47;;;15.90;;
1078;SDS011;528;47.872;11.478;2022-08-06T20:57:16;16.90;;;15.50;;
1078;SDS011;528;47.872;11.478;2022-08-06T20:59:45;16.73;;;15.10;;
1078;SDS011;528;47.872;11.478;2022-08-06T21:02:12;17.53;;;15.90;;
1078;SDS011;528;47.872;11.478;2022-08-06T21:04:39;17.43;;;16.03;;
1078;SDS011;528;47.872;11.478;2022-08-06T21:07:09;16.80;;;15.30;;
1078;SDS011;528;47.872;11.478;2022-08-06T21:09:38;16.73;;;15.13;;
1078;SDS011;528;47.872;11.478;2022-08-06T21:12:05;16.90;;;15.50;;
1078;SDS011;528;47.872;11.478;2022-08-06T21:14:32;16.80;;;15.40;;
1078;SDS011;528;47.872;11.478;2022-08-06T21:17:01;16.37;;;15.00;;
1078;SDS011;528;47.872;11.478;2022-08-06T21:19:29;16.83;;;15.33;;
1078;SDS011;528;47.872;11.478;2022-08-06T21:21:58;16.20;;;14.87;;
1078;SDS011;528;47.872;11.478;2022-08-06T21:24:26;17.50;;;15.73;;
1078;SDS011;528;47.872;11.478;2022-08-06T21:26:53;17.50;;;15.90;;
1078;SDS011;528;47.872;11.478;2022-08-06T21:29:20;17.00;;;15.50;;
1078;SDS011;528;47.872;11.478;2022-08-06T21:31:47;17.53;;;15.93;;
1078;SDS011;528;47.872;11.478;2022-08-06T21:34:16;17.20;;;15.50;;
1078;SDS011;528;47.872;11.478;2022-08-06T21:36:43;16.70;;;15.20;;
1078;SDS011;528;47.872;11.478;2022-08-06T21:39:10;17.70;;;16.27;;
1078;SDS011;528;47.872;11.478;2022-08-06T21:41:38;17.07;;;15.47;;
1078;SDS011;528;47.872;11.478;2022-08-06T21:44:06;18.00;;;16.40;;
1078;SDS011;528;47.872;11.478;2022-08-06T21:46:45;17.33;;;15.83;;
1078;SDS011;528;47.872;11.478;2022-08-06T21:49:14;18.67;;;16.70;;
1078;SDS011;528;47.872;11.478;2022-08-06T21:51:43;17.60;;;15.90;;
1078;SDS011;528;47.872;11.478;2022-08-06T21:54:10;18.70;;;17.10;;
1078;SDS011;528;47.872;11.478;2022-08-06T21:56:38;16.90;;;15.20;;
1078;SDS011;528;47.872;11.478;2022-08-06T21:59:08;17.90;;;16.30;;
1078;SDS011;528;47.872;11.478;2022-08-06T22:01:35;17.57;;;16.00;;
1078;SDS011;528;47.872;11.478;2022-08-06T22:04:03;18.80;;;17.10;;
1078;SDS011;528;47.872;11.478;2022-08-06T22:06:43;19.13;;;17.23;;
1078;SDS011;528;47.872;11.478;2022-08-06T22:09:10;18.60;;;16.90;;
1078;SDS011;528;47.872;11.478;2022-08-06T22:11:38;17.43;;;15.80;;
1078;SDS011;528;47.872;11.478;2022-08-06T22:14:10;17.07;;;15.57;;
1078;SDS011;528;47.872;11.478;2022-08-06T22:16:38;18.37;;;16.67;;
1078;SDS011;528;47.872;11.478;2022-08-06T22:19:06;19.17;;;17.33;;
1078;SDS011;528;47.872;11.478;2022-08-06T22:21:37;18.27;;;16.57;;
1078;SDS011;528;47.872;11.478;2022-08-06T22:24:15;19.73;;;17.73;;
1078;SDS011;528;47.872;11.478;2022-08-06T22:26:50;18.50;;;16.90;;
1078;SDS011;528;47.872;11.478;2022-08-06T22:29:19;17.80;;;16.10;;
1078;SDS011;528;47.872;11.478;2022-08-06T22:31:49;19.00;;;17.20;;
1078;SDS011;528;47.872;11.478;2022-08-06T22:34:19;16.67;;;15.17;;
1078;SDS011;528;47.872;11.478;2022-08-06T22:36:52;16.97;;;15.37;;
1078;SDS011;528;47.872;11.478;2022-08-06T22:39:41;17.80;;;16.20;;
1078;SDS011;528;47.872;11.478;2022-08-06T22:42:10;19.73;;;18.03;;
1078;SDS011;528;47.872;11.478;2022-08-06T22:44:40;19.00;;;17.27;;
1078;SDS011;528;47.872;11.478;2022-08-06T22:47:11;18.10;;;16.50;;
1078;SDS011;528;47.872;11.478;2022-08-06T22:49:39;19.13;;;17.33;;
1078;SDS011;528;47.872;11.478;2022-08-06T22:52:08;20.33;;;18.47;;
1078;SDS011;528;47.872;11.478;2022-08-06T22:54:38;20.50;;;18.53;;
1078;SDS011;528;47.872;11.478;2022-08-06T22:57:08;20.60;;;18.70;;
1078;SDS011;528;47.872;11.478;2022-08-06T22:59:37;22.47;;;20.37;;
1078;SDS011;528;47.872;11.478;2022-08-06T23:02:06;22.87;;;20.57;;
1078;SDS011;528;47.872;11.478;2022-08-06T23:04:34;19.40;;;17.67;;
1078;SDS011;528;47.872;11.478;2022-08-06T23:07:04;22.10;;;19.90;;
1078;SDS011;528;47.872;11.478;2022-08-06T23:09:32;21.27;;;19.27;;
1078;SDS011;528;47.872;11.478;2022-08-06T23:12:00;21.40;;;19.40;;
1078;SDS011;528;47.872;11.478;2022-08-06T23:14:28;22.37;;;20.27;;
1078;SDS011;528;47.872;11.478;2022-08-06T23:16:55;22.00;;;19.90;;
1078;SDS011;528;47.872;11.478;2022-08-06T23:19:22;20.87;;;18.97;;
1078;SDS011;528;47.872;11.478;2022-08-06T23:21:49;19.77;;;18.00;;
1078;SDS011;528;47.872;11.478;2022-08-06T23:24:17;20.40;;;18.60;;
1078;SDS011;528;47.872;11.478;2022-08-06T23:26:46;20.63;;;18.63;;
1078;SDS011;528;47.872;11.478;2022-08-06T23:29:32;20.57;;;18.60;;
1078;SDS011;528;47.872;11.478;2022-08-06T23:32:02;21.40;;;19.30;;
1078;SDS011;528;47.872;11.478;2022-08-06T23:34:31;19.50;;;17.60;;
1078;SDS011;528;47.872;11.478;2022-08-06T23:36:59;19.97;;;18.00;;
1078;SDS011;528;47.872;11.478;2022-08-06T23:39:26;21.73;;;19.57;;
1078;SDS011;528;47.872;11.478;2022-08-06T23:41:54;19.80;;;17.90;;
1078;SDS011;528;47.872;11.478;2022-08-06T23:44:22;20.43;;;18.47;;
1078;SDS011;528;47.872;11.478;2022-08-06T23:49:59;19.03;;;17.20;;
1078;SDS011;528;47.872;11.478;2022-08-06T23:52:29;19.07;;;17.17;;
1078;SDS011;528;47.872;11.478;2022-08-06T23:54:58;20.17;;;18.17;;
1078;SDS011;528;47.872;11.478;2022-08-06T23:57:30;18.83;;;16.97;;
